Time;durP1;ratioP1;P1;durP2;ratioP2;P2;SDS_P1;SDS_P2;PMS_P1;PMS_P2;Temp;Humidity;BMP_temperature;BMP_pressure;BME280_temperature;BME280_humidity;BME280_pressure;Samples;Min_cycle;Max_cycle;Signal;HPM_P1;HPM_P2
2023/10/18 00:01:15;;;;;;;1.02;0.77;;;;;;;8.91;73.03;100309.25;5067944;28;20475;-63
2023/10/18 00:03:41;;;;;;;0.77;0.65;;;;;;;8.86;73.02;100318.75;5067396;28;20029;-61
2023/10/18 00:06:18;;;;;;;0.98;0.80;;;;;;;8.81;72.91;100311.00;5067533;28;20024;-62
2023/10/18 00:08:45;;;;;;;1.08;0.85;;;;;;;8.79;72.90;100312.72;5067964;28;20089;-61
2023/10/18 00:11:10;;;;;;;0.65;0.65;;;;;;;8.70;72.87;100312.72;5067960;28;20025;-61
2023/10/18 00:13:36;;;;;;;0.38;0.38;;;;;;;8.65;72.90;100321.38;5067780;28;20044;-61
2023/10/18 00:16:06;;;;;;;0.98;0.60;;;;;;;8.57;72.85;100317.94;5067717;28;20029;-62
2023/10/18 00:18:32;;;;;;;0.52;0.52;;;;;;;8.54;72.71;100317.91;5067230;28;20044;-62
2023/10/18 00:21:04;;;;;;;0.85;0.73;;;;;;;8.49;72.85;100322.22;5067574;28;20047;-62
2023/10/18 00:23:33;;;;;;;0.70;0.70;;;;;;;8.38;72.92;100315.34;5066518;28;20025;-62
2023/10/18 00:26:06;;;;;;;0.55;0.55;;;;;;;8.37;72.78;100326.53;5067749;28;20059;-62
2023/10/18 00:28:36;;;;;;;3.38;0.60;;;;;;;8.32;72.81;100328.28;5066959;28;20385;-61
2023/10/18 00:31:20;;;;;;;0.40;0.40;;;;;;;8.26;72.84;100329.13;5067468;28;20039;-61
2023/10/18 00:33:45;;;;;;;3.67;1.05;;;;;;;8.23;72.81;100331.72;5067037;28;20017;-62
2023/10/18 00:36:11;;;;;;;0.73;0.73;;;;;;;8.19;72.82;100333.44;5067555;28;20100;-62
2023/10/18 00:38:39;;;;;;;2.65;0.95;;;;;;;8.17;72.75;100345.53;5067358;28;20029;-62
2023/10/18 00:41:08;;;;;;;0.40;0.40;;;;;;;8.11;72.77;100336.91;5067258;28;20519;-63
2023/10/18 00:43:33;;;;;;;1.27;0.80;;;;;;;8.09;72.78;100349.81;5067012;28;20032;-61
2023/10/18 00:45:59;;;;;;;0.70;0.63;;;;;;;8.07;72.50;100343.78;5067006;28;20045;-61
2023/10/18 00:48:27;;;;;;;5.82;0.95;;;;;;;8.03;72.69;100342.06;5066877;28;20031;-62
2023/10/18 00:50:54;;;;;;;2.38;0.95;;;;;;;7.98;72.58;100351.53;5067114;28;20025;-61
2023/10/18 00:53:23;;;;;;;0.55;0.55;;;;;;;7.96;72.44;100346.34;5066983;28;20028;-61
2023/10/18 00:56:00;;;;;;;1.52;1.15;;;;;;;7.92;72.42;100344.63;5067012;28;20462;-61
2023/10/18 00:58:29;;;;;;;1.70;0.90;;;;;;;7.88;72.66;100348.06;5067013;28;20036;-62
2023/10/18 01:00:56;;;;;;;0.73;0.50;;;;;;;7.83;72.39;100340.28;5066913;28;20462;-62
2023/10/18 01:03:32;;;;;;;0.40;0.40;;;;;;;7.79;72.58;100348.91;5066477;28;20226;-62
2023/10/18 01:06:00;;;;;;;0.40;0.40;;;;;;;7.79;72.67;100354.97;5066872;28;20048;-62
2023/10/18 01:08:29;;;;;;;0.38;0.38;;;;;;;7.76;72.89;100359.25;5066919;28;20090;-62
2023/10/18 01:11:01;;;;;;;0.57;0.57;;;;;;;7.70;72.97;100347.16;5066551;28;20036;-62
2023/10/18 01:13:27;;;;;;;0.90;0.88;;;;;;;7.73;73.04;100361.81;5066611;28;20052;-62
2023/10/18 01:15:52;;;;;;;2.13;0.90;;;;;;;7.71;72.95;100355.78;5066514;28;20025;-62
2023/10/18 01:18:18;;;;;;;0.50;0.50;;;;;;;7.68;72.72;100356.66;5065934;28;20024;-61
2023/10/18 01:20:46;;;;;;;2.28;1.45;;;;;;;7.67;72.91;100354.91;5066557;28;20029;-62
2023/10/18 01:23:11;;;;;;;0.43;0.43;;;;;;;7.65;72.80;100361.81;5066354;28;20025;-62
2023/10/18 01:25:37;;;;;;;1.65;0.50;;;;;;;7.63;72.77;100361.81;5066340;28;20021;-61
2023/10/18 01:28:02;;;;;;;1.17;0.55;;;;;;;7.65;72.91;100365.25;5066259;28;20462;-63
2023/10/18 01:30:29;;;;;;;7.25;0.63;;;;;;;7.63;72.99;100361.81;5066321;28;20024;-61
2023/10/18 01:32:54;;;;;;;0.43;0.43;;;;;;;7.67;72.96;100363.53;5066240;28;20384;-62
2023/10/18 01:35:21;;;;;;;3.92;0.93;;;;;;;7.67;73.02;100362.66;5065917;28;20483;-62
2023/10/18 01:37:49;;;;;;;1.60;0.70;;;;;;;7.67;72.91;100360.06;5066250;28;20033;-62
2023/10/18 01:40:52;;;;;;;0.82;0.55;;;;;;;7.62;72.84;100362.66;5065946;28;20016;-62
2023/10/18 01:43:05;;;;;;;0.40;0.40;;;;;;;7.60;72.83;100368.69;5061854;28;20037;-62
2023/10/18 01:45:37;;;;;;;0.93;0.68;;;;;;;7.55;72.92;100371.25;5064239;28;20063;-62
2023/10/18 01:48:06;;;;;;;0.50;0.50;;;;;;;7.55;73.01;100371.25;5066014;28;20025;-62
2023/10/18 01:50:31;;;;;;;0.50;0.47;;;;;;;7.50;73.00;100372.94;5065905;28;20087;-62
2023/10/18 01:52:59;;;;;;;0.40;0.40;;;;;;;7.44;72.89;100369.47;5065826;28;20021;-62
2023/10/18 01:55:31;;;;;;;2.15;1.00;;;;;;;7.38;73.02;100369.44;5065657;28;20107;-61
2023/10/18 01:57:58;;;;;;;0.57;0.47;;;;;;;7.39;73.00;100378.94;5065874;28;20025;-62
2023/10/18 02:00:34;;;;;;;0.40;0.40;;;;;;;7.36;73.10;100375.47;5065633;28;20024;-62
2023/10/18 02:03:00;;;;;;;0.40;0.40;;;;;;;7.29;72.94;100365.13;5065432;28;20017;-62
2023/10/18 02:05:26;;;;;;;0.77;0.68;;;;;;;7.29;73.14;100369.41;5065809;28;20178;-61
2023/10/18 02:07:54;;;;;;;0.38;0.38;;;;;;;7.30;73.02;100373.75;5065431;28;20077;-61
2023/10/18 02:10:23;;;;;;;0.50;0.50;;;;;;;7.25;73.16;100378.84;5065180;28;20020;-62
2023/10/18 02:12:48;;;;;;;0.68;0.68;;;;;;;7.24;72.91;100379.72;5065357;28;20143;-62
2023/10/18 02:15:15;;;;;;;1.40;0.80;;;;;;;7.19;72.81;100377.13;5065258;28;20461;-60
2023/10/18 02:17:43;;;;;;;7.03;1.50;;;;;;;7.15;73.01;100383.13;5064954;28;20025;-61
2023/10/18 02:20:26;;;;;;;0.50;0.50;;;;;;;7.10;72.92;100389.97;5065299;28;20419;-62
2023/10/18 02:22:53;;;;;;;1.15;0.70;;;;;;;7.12;72.97;100395.16;5064815;28;20445;-62
2023/10/18 02:25:37;;;;;;;1.02;0.93;;;;;;;7.08;72.98;100391.69;5063837;28;20488;-62
2023/10/18 02:28:08;;;;;;;0.40;0.40;;;;;;;7.09;72.85;100393.44;5064929;28;20028;-61
2023/10/18 02:30:37;;;;;;;0.40;0.40;;;;;;;7.06;73.09;100388.25;5065270;28;20025;-61
2023/10/18 02:33:04;;;;;;;0.63;0.63;;;;;;;7.01;73.09;100400.25;5065036;28;20024;-60
2023/10/18 02:35:32;;;;;;;1.00;0.65;;;;;;;6.96;72.91;100392.50;5064843;28;20044;-61
2023/10/18 02:37:57;;;;;;;1.13;0.73;;;;;;;6.89;72.96;100388.13;5064911;28;20098;-61
2023/10/18 02:40:31;;;;;;;1.27;0.77;;;;;;;6.86;72.94;100391.56;5064934;28;20016;-62
2023/10/18 02:42:58;;;;;;;0.75;0.75;;;;;;;6.87;72.74;100402.75;5064782;28;20031;-62
2023/10/18 02:45:24;;;;;;;0.60;0.60;;;;;;;6.81;72.87;100398.41;5064470;28;20045;-61
2023/10/18 02:47:53;;;;;;;0.75;0.70;;;;;;;6.79;72.78;100405.25;5064521;28;20024;-60
2023/10/18 02:50:19;;;;;;;0.52;0.50;;;;;;;6.72;72.94;100401.78;5064716;28;20043;-61
2023/10/18 02:52:47;;;;;;;0.32;0.32;;;;;;;6.70;73.30;100398.31;5064745;28;20017;-61
2023/10/18 02:55:13;;;;;;;0.50;0.40;;;;;;;6.69;73.67;100394.88;5064789;28;20021;-61
2023/10/18 02:57:42;;;;;;;1.10;0.70;;;;;;;6.74;73.40;100392.31;5064858;28;20058;-61
2023/10/18 03:00:11;;;;;;;0.40;0.40;;;;;;;6.77;73.13;100396.66;5064798;28;20487;-62
2023/10/18 03:02:38;;;;;;;0.70;0.70;;;;;;;6.76;73.30;100400.06;5064649;28;20029;-60
2023/10/18 03:05:05;;;;;;;0.88;0.60;;;;;;;6.71;72.90;100401.78;5046600;28;20033;-62
2023/10/18 03:07:31;;;;;;;0.50;0.50;;;;;;;6.74;72.86;100406.97;5064672;28;20017;-61
2023/10/18 03:10:03;;;;;;;7.32;0.80;;;;;;;6.75;72.97;100408.69;5064763;28;20109;-61
2023/10/18 03:12:29;;;;;;;0.30;0.30;;;;;;;6.78;73.01;100408.69;5064649;28;20074;-61
2023/10/18 03:14:54;;;;;;;0.40;0.40;;;;;;;6.81;72.88;100408.72;5064506;28;20115;-62
2023/10/18 03:17:23;;;;;;;0.40;0.40;;;;;;;6.84;72.90;100407.91;5064798;28;20085;-62
2023/10/18 03:19:50;;;;;;;0.68;0.50;;;;;;;6.81;73.00;100400.97;5064445;28;20093;-62
2023/10/18 03:22:21;;;;;;;0.47;0.47;;;;;;;6.85;72.97;100412.19;5064443;28;20029;-62
2023/10/18 03:24:53;;;;;;;0.98;0.80;;;;;;;6.84;72.85;100413.91;5064495;28;20056;-61
2023/10/18 03:27:18;;;;;;;0.60;0.60;;;;;;;6.83;72.82;100409.59;5064490;28;20276;-63
2023/10/18 03:29:45;;;;;;;0.63;0.63;;;;;;;6.80;72.90;100418.19;5064464;28;20021;-62
2023/10/18 03:32:15;;;;;;;0.57;0.57;;;;;;;6.77;72.98;100417.31;5064492;28;20021;-62
2023/10/18 03:34:44;;;;;;;0.55;0.40;;;;;;;6.74;73.02;100419.84;5064309;28;20350;-62
2023/10/18 03:37:18;;;;;;;0.60;0.55;;;;;;;6.71;73.14;100418.09;5064305;28;20109;-62
2023/10/18 03:39:45;;;;;;;0.65;0.65;;;;;;;6.64;72.97;100416.34;5064378;28;20442;-62
2023/10/18 03:42:26;;;;;;;0.82;0.60;;;;;;;6.52;73.11;100399.03;5064305;28;20059;-62
2023/10/18 03:44:51;;;;;;;0.68;0.60;;;;;;;6.57;73.19;100416.28;5046315;28;20029;-62
2023/10/18 03:47:24;;;;;;;2.25;0.50;;;;;;;6.53;73.25;100413.69;5064365;28;20112;-61
2023/10/18 03:49:53;;;;;;;1.35;0.57;;;;;;;6.49;73.31;100417.06;5064290;28;20048;-61
2023/10/18 03:52:18;;;;;;;0.40;0.40;;;;;;;6.48;73.37;100415.34;5064383;28;20017;-61
2023/10/18 03:54:45;;;;;;;0.50;0.50;;;;;;;6.50;73.27;100418.81;5064332;28;20080;-62
2023/10/18 03:57:18;;;;;;;0.73;0.73;;;;;;;6.51;73.25;100429.13;5064286;28;20050;-62
2023/10/18 03:59:47;;;;;;;0.73;0.60;;;;;;;6.50;73.24;100422.22;5067487;28;20028;-62
2023/10/18 04:04:57;;;;;;;0.80;0.80;;;;;;;6.46;73.12;100412.75;5067744;28;20021;-63
2023/10/18 04:07:24;;;;;;;0.50;0.50;;;;;;;6.42;73.17;100405.84;5067775;28;20032;-62
2023/10/18 04:12:27;;;;;;;0.50;0.50;;;;;;;6.43;72.57;100421.34;5067809;28;20045;-61
2023/10/18 04:14:53;;;;;;;0.60;0.60;;;;;;;6.43;72.75;100423.91;5067697;28;20068;-62
2023/10/18 04:17:38;;;;;;;0.95;0.77;;;;;;;6.37;72.69;100412.66;5067480;28;20505;-61
2023/10/18 04:20:11;;;;;;;0.60;0.60;;;;;;;6.34;72.70;100413.53;5067506;28;20025;-61
2023/10/18 04:22:38;;;;;;;1.85;1.00;;;;;;;6.29;72.55;100408.28;5067275;28;20059;-61
2023/10/18 04:27:48;;;;;;;1.70;0.82;;;;;;;6.25;72.56;100418.56;5067535;28;20111;-62
2023/10/18 04:30:16;;;;;;;0.88;0.70;;;;;;;6.23;72.46;100420.28;5067291;28;20021;-60
2023/10/18 04:32:42;;;;;;;0.40;0.40;;;;;;;6.22;72.29;100421.13;5067251;28;20025;-63
2023/10/18 04:35:17;;;;;;;2.70;0.63;;;;;;;6.19;72.48;100421.97;5066618;28;20104;-62
2023/10/18 04:37:43;;;;;;;0.43;0.43;;;;;;;6.17;72.22;100421.94;5066640;28;20021;-62
2023/10/18 04:40:22;;;;;;;0.73;0.38;;;;;;;6.17;72.23;100418.50;5066991;28;20013;-62
2023/10/18 04:42:48;;;;;;;1.00;0.60;;;;;;;6.11;72.11;100414.16;5066688;28;20033;-62
2023/10/18 04:45:16;;;;;;;0.55;0.55;;;;;;;6.09;72.14;100420.16;5066724;28;20045;-62
2023/10/18 04:47:42;;;;;;;0.60;0.60;;;;;;;6.07;72.19;100428.72;5067362;28;20021;-62
2023/10/18 04:50:11;;;;;;;0.40;0.40;;;;;;;6.05;71.87;100432.13;5066958;28;20017;-62
2023/10/18 04:52:43;;;;;;;0.43;0.43;;;;;;;5.96;72.01;100422.53;5066992;28;20025;-62
2023/10/18 04:55:14;;;;;;;0.50;0.50;;;;;;;6.00;71.85;100432.06;5066811;28;20059;-62
2023/10/18 04:57:43;;;;;;;0.40;0.40;;;;;;;5.95;71.90;100431.13;5066866;28;20036;-62
2023/10/18 05:00:25;;;;;;;0.50;0.50;;;;;;;5.97;71.62;100438.88;5066922;28;20029;-62
2023/10/18 05:02:54;;;;;;;0.52;0.52;;;;;;;5.92;71.76;100431.97;5066637;28;20025;-62
2023/10/18 05:05:20;;;;;;;0.55;0.55;;;;;;;5.92;71.97;100426.81;5066625;28;20056;-62
2023/10/18 05:07:48;;;;;;;0.40;0.40;;;;;;;5.86;71.65;100426.75;5067132;28;20024;-63
2023/10/18 05:10:14;;;;;;;0.57;0.57;;;;;;;5.85;71.57;100427.59;5066399;28;20074;-63
2023/10/18 05:12:53;;;;;;;0.70;0.70;;;;;;;5.77;71.75;100426.63;5066735;28;20021;-62
2023/10/18 05:15:22;;;;;;;0.50;0.50;;;;;;;5.77;71.62;100435.22;5066801;28;20020;-62
2023/10/18 05:17:50;;;;;;;0.55;0.55;;;;;;;5.71;71.64;100427.44;5066850;28;20025;-62
2023/10/18 05:22:49;;;;;;;0.70;0.60;;;;;;;5.70;71.39;100448.88;5066479;28;20025;-60
2023/10/18 05:27:46;;;;;;;0.50;0.50;;;;;;;5.62;71.14;100456.53;5066379;28;20029;-63
2023/10/18 05:30:26;;;;;;;1.48;1.38;;;;;;;5.58;71.24;100462.47;5066354;28;20028;-63
2023/10/18 05:35:33;;;;;;;0.60;0.60;;;;;;;5.52;70.98;100454.66;5066214;28;20484;-63
2023/10/18 05:38:39;;;;;;;1.58;0.80;;;;;;;5.49;71.25;100470.06;5066110;28;20028;-63
2023/10/18 05:40:56;;;;;;;0.50;0.50;;;;;;;5.43;70.96;100461.41;5065394;28;20033;-62
2023/10/18 05:43:35;;;;;;;0.47;0.47;;;;;;;5.40;71.23;100468.25;5065949;28;20032;-63
2023/10/18 05:46:07;;;;;;;2.17;1.40;;;;;;;5.41;71.15;100475.13;5065472;28;20052;-63
2023/10/18 05:48:36;;;;;;;0.47;0.47;;;;;;;5.38;71.15;100482.78;5065742;28;20028;-63
2023/10/18 05:51:25;;;;;;;1.20;0.85;;;;;;;5.33;71.15;100482.75;5065914;28;20024;-63
2023/10/18 05:53:59;;;;;;;0.70;0.65;;;;;;;5.31;71.35;100489.56;5065650;28;20049;-62
2023/10/18 05:56:31;;;;;;;0.57;0.57;;;;;;;5.29;71.28;100489.53;5066018;28;20025;-64
2023/10/18 06:01:45;;;;;;;0.63;0.60;;;;;;;5.26;71.25;100504.06;5065753;28;20025;-62
2023/10/18 06:04:12;;;;;;;0.70;0.70;;;;;;;5.25;71.26;100507.50;5065212;28;20040;-62
2023/10/18 06:06:38;;;;;;;0.52;0.52;;;;;;;5.24;71.26;100511.75;5065691;28;20027;-62
2023/10/18 06:09:26;;;;;;;0.50;0.50;;;;;;;5.22;71.20;100513.47;5065723;28;20032;-61
2023/10/18 06:11:52;;;;;;;1.95;0.70;;;;;;;5.20;71.30;100510.88;5065665;28;20091;-62
2023/10/18 06:14:17;;;;;;;1.05;1.00;;;;;;;5.20;71.05;100516.03;5065524;28;20021;-62
2023/10/18 06:16:43;;;;;;;0.70;0.65;;;;;;;5.21;71.25;100514.28;5065669;28;20021;-63
2023/10/18 06:19:13;;;;;;;0.50;0.50;;;;;;;5.23;71.15;100525.50;5065379;28;20025;-62
2023/10/18 06:21:46;;;;;;;0.75;0.75;;;;;;;5.24;71.26;100518.63;5064999;28;20066;-63
2023/10/18 06:24:12;;;;;;;0.50;0.50;;;;;;;5.24;71.23;100519.50;5065294;28;20028;-62
2023/10/18 06:26:41;;;;;;;0.52;0.52;;;;;;;5.28;71.14;100528.13;5065618;28;20029;-63
2023/10/18 06:29:11;;;;;;;0.80;0.80;;;;;;;5.31;70.99;100526.47;5065435;28;20287;-61
2023/10/18 06:31:43;;;;;;;0.77;0.70;;;;;;;5.32;71.16;100528.19;5065501;28;20021;-63
2023/10/18 06:34:17;;;;;;;;;;;;;;;5.36;71.13;100534.28;5065561;28;20047;-61
2023/10/18 06:36:43;;;;;;;1.02;0.68;;;;;;;5.35;71.03;100537.69;5065438;28;19908;-63
2023/10/18 06:39:15;;;;;;;1.35;1.25;;;;;;;5.51;71.15;100537.91;5065247;28;20143;-62
2023/10/18 06:41:43;;;;;;;0.40;0.40;;;;;;;5.83;71.43;100540.94;5065452;28;20045;-63
2023/10/18 06:44:11;;;;;;;1.00;0.70;;;;;;;6.43;71.48;100542.56;5065235;28;20404;-63
2023/10/18 06:46:38;;;;;;;0.68;0.68;;;;;;;7.04;71.22;100539.69;5064714;28;20048;-63
2023/10/18 06:49:10;;;;;;;3.28;1.67;;;;;;;7.66;71.27;100549.56;5065080;28;20032;-62
2023/10/18 06:51:40;;;;;;;;;;;;;;;8.20;70.81;100551.56;5065821;28;20028;-63
2023/10/18 06:54:13;;;;;;;3.92;1.02;;;;;;;8.45;68.88;100548.19;5065163;28;19919;-63
2023/10/18 06:56:45;;;;;;;1.23;1.13;;;;;;;8.60;68.37;100545.66;5065219;28;20064;-63
2023/10/18 06:59:11;;;;;;;0.70;0.70;;;;;;;8.89;68.41;100552.63;5065310;28;20027;-63
2023/10/18 07:04:56;;;;;;;1.73;0.68;;;;;;;9.50;69.28;100544.81;5064875;28;20320;-63
2023/10/18 07:07:13;;;;;;;0.52;0.52;;;;;;;9.82;70.30;100530.06;5062062;28;20097;-63
2023/10/18 07:09:42;;;;;;;1.38;0.70;;;;;;;10.32;70.57;100547.97;5065052;28;20032;-63
2023/10/18 07:12:11;;;;;;;2.70;0.70;;;;;;;10.60;70.57;100550.47;5064940;28;20033;-63
2023/10/18 07:14:37;;;;;;;5.75;1.05;;;;;;;10.83;69.90;100539.06;5065130;28;20132;-63
2023/10/18 07:17:04;;;;;;;0.43;0.43;;;;;;;11.13;69.48;100550.06;5064813;28;20028;-63
2023/10/18 07:19:33;;;;;;;1.05;0.57;;;;;;;11.20;68.39;100560.44;5064686;28;20078;-63
2023/10/18 07:22:00;;;;;;;0.50;0.50;;;;;;;11.32;68.09;100560.31;5065085;28;20025;-63
2023/10/18 07:24:36;;;;;;;0.90;0.77;;;;;;;11.32;66.03;100554.25;5064713;28;20024;-62
2023/10/18 07:27:09;;;;;;;3.17;0.82;;;;;;;11.37;67.09;100562.88;5064650;28;20021;-63
2023/10/18 07:29:36;;;;;;;1.42;0.85;;;;;;;11.28;65.03;100569.88;5064897;28;20028;-63
2023/10/18 07:32:06;;;;;;;0.95;0.80;;;;;;;11.12;65.02;100569.16;5065451;28;20025;-63
2023/10/18 07:34:33;;;;;;;3.50;0.85;;;;;;;11.02;64.52;100575.31;5068590;28;20070;-63
2023/10/18 07:37:00;;;;;;;0.90;0.70;;;;;;;11.01;65.42;100565.75;5068538;28;20024;-62
2023/10/18 07:39:25;;;;;;;0.40;0.40;;;;;;;11.15;63.99;100563.91;5068455;28;20021;-64
2023/10/18 07:41:52;;;;;;;1.33;0.65;;;;;;;11.09;63.03;100571.78;5068706;28;20035;-63
2023/10/18 07:44:18;;;;;;;0.38;0.38;;;;;;;11.07;62.41;100577.88;5068396;28;20029;-63
2023/10/18 07:46:43;;;;;;;0.55;0.55;;;;;;;11.03;61.85;100579.63;5068272;28;20561;-63
2023/10/18 07:49:14;;;;;;;1.05;0.70;;;;;;;10.94;60.77;100579.69;5068149;28;20052;-63
2023/10/18 07:51:49;;;;;;;0.68;0.68;;;;;;;10.90;60.20;100578.84;5068520;28;20032;-63
2023/10/18 07:54:16;;;;;;;0.70;0.70;;;;;;;10.66;59.42;100579.00;5068321;28;20032;-60
2023/10/18 07:56:54;;;;;;;1.10;0.68;;;;;;;10.75;59.38;100582.41;5068397;28;20104;-62
2023/10/18 07:59:30;;;;;;;2.08;0.90;;;;;;;11.03;59.21;100575.28;5068176;28;20017;-62
2023/10/18 08:04:42;;;;;;;0.50;0.50;;;;;;;11.93;56.81;100566.66;5068084;28;20059;-65
2023/10/18 08:07:10;;;;;;;3.60;0.95;;;;;;;12.21;57.43;100580.22;5068026;28;20420;-63
2023/10/18 08:09:40;;;;;;;0.70;0.70;;;;;;;12.49;56.35;100582.44;5068016;28;20056;-63
2023/10/18 08:12:06;;;;;;;0.63;0.63;;;;;;;12.70;55.32;100584.81;5068164;28;20033;-63
2023/10/18 08:14:35;;;;;;;0.80;0.80;;;;;;;12.72;55.96;100576.06;5067790;28;20810;-63
2023/10/18 08:17:09;;;;;;;0.73;0.73;;;;;;;12.74;55.50;100578.66;5067898;28;20025;-63
2023/10/18 08:19:44;;;;;;;2.70;0.60;;;;;;;12.94;55.25;100601.78;5067586;28;20028;-62
2023/10/18 08:24:36;;;;;;;0.88;0.68;;;;;;;12.67;54.78;100590.06;5067595;28;20040;-62
2023/10/18 08:27:09;;;;;;;0.45;0.45;;;;;;;12.77;55.49;100596.84;5067855;28;20062;-63
2023/10/18 08:29:38;;;;;;;0.63;0.52;;;;;;;12.88;54.87;100599.28;5067629;28;20035;-63
2023/10/18 08:32:06;;;;;;;0.68;0.68;;;;;;;12.76;54.99;100595.13;5067747;28;20025;-62
2023/10/18 08:34:32;;;;;;;1.13;0.65;;;;;;;12.72;55.41;100590.81;5067303;28;20013;-63
2023/10/18 08:37:04;;;;;;;0.70;0.70;;;;;;;12.71;55.57;100600.41;5067661;28;20036;-63
2023/10/18 08:39:30;;;;;;;0.63;0.60;;;;;;;12.85;56.00;100605.41;5067465;28;20029;-62
2023/10/18 08:42:12;;;;;;;0.52;0.52;;;;;;;13.13;56.00;100610.19;5067116;28;20021;-64
2023/10/18 08:44:38;;;;;;;;;;;;;;;13.60;55.59;100614.66;5066719;28;20032;-63
2023/10/18 08:49:44;;;;;;;0.88;0.55;;;;;;;13.91;52.88;100602.81;5067107;28;20017;-63
2023/10/18 08:52:10;;;;;;;0.60;0.60;;;;;;;13.47;53.50;100607.91;5067252;28;20028;-63
2023/10/18 08:54:41;;;;;;;1.25;0.60;;;;;;;12.97;53.69;100608.72;5067096;28;20056;-63
2023/10/18 08:57:10;;;;;;;0.30;0.30;;;;;;;12.61;54.68;100607.47;5067216;28;20029;-63
2023/10/18 08:59:43;;;;;;;5.97;0.70;;;;;;;12.65;54.18;100616.13;5067228;28;20048;-63
2023/10/18 09:02:18;;;;;;;5.15;0.60;;;;;;;12.60;54.34;100610.09;5067011;28;20100;-63
2023/10/18 09:04:59;;;;;;;0.65;0.52;;;;;;;12.88;53.10;100613.19;5066803;28;20469;-62
2023/10/18 09:07:44;;;;;;;0.30;0.30;;;;;;;12.98;52.85;100606.09;5067126;28;20043;-62
2023/10/18 09:10:32;;;;;;;0.45;0.45;;;;;;;13.42;53.67;100605.38;5066991;28;20095;-63
2023/10/18 09:15:29;;;;;;;1.95;0.70;;;;;;;14.12;52.00;100606.72;5066885;28;20089;-64
2023/10/18 09:18:05;;;;;;;0.43;0.43;;;;;;;14.23;51.62;100613.50;5066822;28;20028;-63
2023/10/18 09:20:31;;;;;;;0.40;0.40;;;;;;;14.18;50.35;100610.13;5066620;28;20500;-63
2023/10/18 09:23:03;;;;;;;1.33;0.60;;;;;;;14.19;50.82;100601.38;5066640;28;20037;-62
2023/10/18 09:25:32;;;;;;;;;;;;;;;14.56;50.70;100604.97;5067112;28;20036;-63
2023/10/18 09:28:09;;;;;;;0.50;0.50;;;;;;;14.84;49.40;100600.00;5066557;28;19909;-63
2023/10/18 09:30:35;;;;;;;0.40;0.40;;;;;;;15.09;48.13;100604.69;5066673;28;20029;-63
2023/10/18 09:33:01;;;;;;;0.80;0.52;;;;;;;15.09;48.22;100609.91;5066579;28;20052;-64
2023/10/18 09:35:27;;;;;;;0.70;0.43;;;;;;;15.09;46.60;100609.03;5066372;28;20074;-63
2023/10/18 09:37:53;;;;;;;0.40;0.40;;;;;;;14.67;47.40;100607.34;5066232;28;20021;-63
2023/10/18 09:40:18;;;;;;;0.60;0.47;;;;;;;14.34;46.54;100603.69;5066395;28;20100;-63
2023/10/18 09:42:44;;;;;;;0.30;0.30;;;;;;;14.03;46.74;100604.31;5066354;28;20133;-63
2023/10/18 09:45:10;;;;;;;0.55;0.55;;;;;;;13.78;47.04;100603.91;5065934;28;20045;-63
2023/10/18 09:47:36;;;;;;;0.40;0.30;;;;;;;14.05;47.34;100602.53;5066246;28;20025;-64
2023/10/18 09:50:07;;;;;;;0.40;0.40;;;;;;;14.55;46.86;100591.06;5066033;28;20051;-63
2023/10/18 09:52:47;;;;;;;1.23;0.43;;;;;;;14.87;45.74;100606.94;5066155;28;20103;-63
2023/10/18 09:55:17;;;;;;;0.30;0.30;;;;;;;14.87;44.30;100594.72;5066022;28;20159;-62
2023/10/18 09:57:49;;;;;;;0.30;0.30;;;;;;;14.84;44.43;100599.19;5066252;28;20048;-63
2023/10/18 10:00:16;;;;;;;1.40;0.45;;;;;;;14.94;44.77;100589.34;5066137;28;20028;-62
2023/10/18 10:02:52;;;;;;;0.50;0.50;;;;;;;14.94;44.36;100595.44;5065950;28;20079;-63
2023/10/18 10:05:25;;;;;;;0.40;0.40;;;;;;;14.99;45.30;100584.88;5065733;28;20021;-63
2023/10/18 10:08:06;;;;;;;0.38;0.38;;;;;;;15.17;44.88;100587.94;5065775;28;20052;-63
2023/10/18 10:10:45;;;;;;;0.40;0.40;;;;;;;14.88;45.07;100595.59;5065861;28;20461;-63
2023/10/18 10:13:25;;;;;;;2.88;0.43;;;;;;;14.51;45.34;100592.00;5065722;28;20021;-63
2023/10/18 10:15:57;;;;;;;0.40;0.40;;;;;;;14.16;45.64;100601.44;5065514;28;20025;-64
2023/10/18 10:18:26;;;;;;;0.45;0.45;;;;;;;13.81;46.75;100596.03;5065440;28;20107;-63
2023/10/18 10:20:54;;;;;;;0.73;0.50;;;;;;;13.60;46.67;100599.03;5065644;28;20092;-63
2023/10/18 10:23:20;;;;;;;0.38;0.38;;;;;;;13.38;47.49;100598.50;5047677;28;20048;-63
2023/10/18 10:26:12;;;;;;;0.60;0.50;;;;;;;13.61;47.87;100600.72;5065351;28;20076;-63
2023/10/18 10:32:06;;;;;;;0.40;0.40;;;;;;;13.94;47.05;100601.88;5065682;28;20032;-62
2023/10/18 10:34:36;;;;;;;0.73;0.50;;;;;;;13.94;47.17;100584.47;5065176;28;20040;-63
2023/10/18 10:37:15;;;;;;;0.50;0.50;;;;;;;14.45;46.64;100598.25;5065407;28;20025;-64
2023/10/18 10:39:49;;;;;;;0.30;0.30;;;;;;;14.65;45.89;100596.09;5065438;28;20055;-63
2023/10/18 10:42:41;;;;;;;0.30;0.30;;;;;;;14.58;45.75;100592.75;5065346;28;20028;-63
2023/10/18 10:47:50;;;;;;;0.40;0.40;;;;;;;14.13;45.48;100592.81;5065297;28;20109;-62
2023/10/18 10:50:42;;;;;;;0.75;0.40;;;;;;;13.93;45.96;100597.56;5064886;28;20028;-63
2023/10/18 10:53:07;;;;;;;0.38;0.38;;;;;;;13.68;46.23;100601.47;5065301;28;20074;-63
2023/10/18 10:55:34;;;;;;;0.40;0.40;;;;;;;13.47;46.82;100589.66;5065167;28;20115;-62
2023/10/18 10:58:15;;;;;;;0.40;0.40;;;;;;;13.40;47.23;100604.56;5065177;28;20032;-62
2023/10/18 11:01:04;;;;;;;0.50;0.50;;;;;;;13.38;47.12;100588.94;5065329;28;20029;-63
2023/10/18 11:03:32;;;;;;;0.30;0.30;;;;;;;13.44;47.09;100595.78;5064834;28;20381;-63
2023/10/18 11:05:58;;;;;;;0.43;0.43;;;;;;;13.41;47.46;100588.03;5064826;28;20142;-64
2023/10/18 11:08:25;;;;;;;0.38;0.38;;;;;;;13.82;47.13;100590.78;5067769;28;20477;-62
2023/10/18 11:10:51;;;;;;;0.38;0.38;;;;;;;14.05;46.89;100584.25;5069235;28;20021;-63
2023/10/18 11:13:22;;;;;;;0.50;0.50;;;;;;;14.68;46.29;100582.94;5068918;28;20481;-63
2023/10/18 11:15:50;;;;;;;0.30;0.30;;;;;;;15.03;44.90;100586.50;5068992;28;20055;-63
2023/10/18 11:18:22;;;;;;;0.30;0.30;;;;;;;14.23;45.76;100584.78;5068790;28;20037;-63
2023/10/18 11:20:50;;;;;;;1.00;0.40;;;;;;;13.33;46.93;100595.97;5069193;28;20025;-63
2023/10/18 11:23:15;;;;;;;0.30;0.30;;;;;;;12.88;48.29;100586.25;5068881;28;20101;-63
2023/10/18 11:25:45;;;;;;;1.45;1.35;;;;;;;12.82;48.90;100589.81;5068759;28;20029;-63
2023/10/18 11:28:28;;;;;;;0.75;0.50;;;;;;;12.61;49.16;100585.78;5068968;28;20040;-62
2023/10/18 11:30:56;;;;;;;0.30;0.30;;;;;;;12.20;49.12;100590.66;5068808;28;20025;-62
2023/10/18 11:33:36;;;;;;;0.32;0.30;;;;;;;11.64;49.95;100582.56;5068489;28;20025;-63
2023/10/18 11:36:03;;;;;;;0.43;0.40;;;;;;;11.27;50.66;100578.56;5068813;28;20043;-62
2023/10/18 11:38:34;;;;;;;0.30;0.30;;;;;;;11.24;50.99;100595.91;5068728;28;20519;-62
2023/10/18 11:41:04;;;;;;;0.40;0.40;;;;;;;10.95;51.90;100591.78;5068675;28;20033;-62
2023/10/18 11:43:39;;;;;;;0.25;0.25;;;;;;;10.83;52.17;100587.56;5068515;28;20289;-63
2023/10/18 11:46:08;;;;;;;0.30;0.30;;;;;;;10.75;52.37;100587.59;5068270;28;20045;-62
2023/10/18 11:48:35;;;;;;;0.30;0.30;;;;;;;10.73;53.01;100581.56;5068021;28;20029;-62
2023/10/18 11:51:06;;;;;;;0.30;0.30;;;;;;;10.81;53.01;100591.88;5068020;28;20024;-62
2023/10/18 11:53:32;;;;;;;0.30;0.30;;;;;;;10.69;53.23;100598.03;5068527;28;20017;-62
2023/10/18 11:56:11;;;;;;;0.30;0.30;;;;;;;10.53;53.36;100575.59;5068228;28;20028;-62
2023/10/18 11:58:37;;;;;;;0.30;0.30;;;;;;;10.48;53.54;100592.09;5068226;28;20092;-62
2023/10/18 12:01:19;;;;;;;0.82;0.75;;;;;;;10.36;54.24;100577.38;5068261;28;20021;-62
2023/10/18 12:03:46;;;;;;;0.38;0.35;;;;;;;10.42;54.16;100585.13;5067879;28;20033;-62
2023/10/18 12:06:11;;;;;;;0.32;0.32;;;;;;;10.35;54.46;100588.66;5068133;28;20021;-62
2023/10/18 12:08:47;;;;;;;0.38;0.38;;;;;;;10.32;54.56;100592.09;5067881;28;20052;-62
2023/10/18 12:11:14;;;;;;;0.40;0.40;;;;;;;10.24;54.66;100578.31;5068266;28;20029;-63
2023/10/18 12:13:40;;;;;;;0.38;0.38;;;;;;;10.25;54.76;100582.63;5067828;28;20074;-63
2023/10/18 12:16:08;;;;;;;0.30;0.30;;;;;;;10.19;55.05;100578.34;5067633;28;20033;-62
2023/10/18 12:18:35;;;;;;;0.40;0.40;;;;;;;10.13;55.38;100570.56;5066518;28;20474;-62
2023/10/18 12:21:00;;;;;;;0.40;0.40;;;;;;;9.97;55.82;100554.22;5067401;28;20488;-62
2023/10/18 12:23:26;;;;;;;0.32;0.32;;;;;;;10.04;55.75;100561.09;5067789;28;20148;-63